Sunflower, MS (38778)

7:27 PM CST on December 17, 2014 (GMT -0600)
KC4ECB Amature Radio Station on Old Tallahatchie River | Change Station
CLOSE
Current Station
Personal Weather Station
Location: Minter City, MS
Elevation: 140 ft
Nearby Weather Stations

Elev 140 ft 33.74 °N, 90.31 °W | Updated 1 minute ago

Mostly Cloudy
Mostly Cloudy
43.4 °F
Feels Like 43 °F
N
2.0
Wind Variable Wind from ENE
Gusts 4.0 mph

Today
High -- | Low -- °F
--% Chance of Precip.
Yesterday
High -- | Low -- °F
Precip. -- in
7:00 AM 4:56 PM
Waning Crescent, 18% visible
Pressure 30.22 in
Visibility 10.0 miles
Clouds Mostly Cloudy 9000 ft
Windchill 43 °F
Dew Point 39 °F
Humidity 84%
Rainfall 0.00 in
Snow Depth Not available.
UV 0.0 out of 12
Pollen 1.50 out of 12
Air Quality Not available.
Flu Activity Not available.
METAR KRNV 180115Z AUTO 06006KT 10SM BKN090 06/03 A3022 RMK AO2 T00570032

More Conditions Fewer Conditions

Pressure 30.22 in
Visibility 10.0 miles
Clouds Mostly Cloudy 9000 ft
Windchill 43 °F
Dew Point 39 °F
Humidity 84%
Rainfall 0.00 in
Snow Depth Not available.
UV 0.0 out of 12
Pollen 1.50 out of 12
Air Quality Not available.
Flu Activity Not available.
METAR KRNV 180115Z AUTO 06006KT 10SM BKN090 06/03 A3022 RMK AO2 T00570032

More Conditions Fewer Conditions

10-Day Weather Forecast

Almanac

Astronomy

Dec. 17, 2014 Rise Set
Actual Time
Civil Twilight
Nautical Twilight
Astronomical Twilight
Moon
Length of Visible Light
Length of Day
Tomorrow will be .
, % of the Moon is Illuminated

Today's Extremes

State Highs State Lows

Community

WunderPhotos

Upload Photos

1,778,847 photos uploaded!

WunderBlogs® & News

Nearby

Air Quality

  Air Quality AQ Index Pollutant
Not available.

Snow Depth

Station Depth Elevation

Earthquake Activity

City Distance Mag. Time & Date
Minimum magnitude displayed is 2.5.

Coastal Water Temperatures

Place Temperature

Nearby Weather Stations